sensor_id;sensor_type;location;lat;lon;timestamp;P1;durP1;ratioP1;P2;durP2;ratioP2
36449;SDS011;22475;51.390;7.180;2023-05-03T00:01:20;3.75;;;1.25;;
36449;SDS011;22475;51.390;7.180;2023-05-03T00:03:51;5.75;;;2.40;;
36449;SDS011;22475;51.390;7.180;2023-05-03T00:06:18;3.08;;;2.03;;
36449;SDS011;22475;51.390;7.180;2023-05-03T00:08:46;5.72;;;2.63;;
36449;SDS011;22475;51.390;7.180;2023-05-03T00:11:13;3.47;;;1.73;;
36449;SDS011;22475;51.390;7.180;2023-05-03T00:13:41;2.60;;;1.92;;
36449;SDS011;22475;51.390;7.180;2023-05-03T00:16:09;2.65;;;1.80;;
36449;SDS011;22475;51.390;7.180;2023-05-03T00:18:36;2.35;;;1.95;;
36449;SDS011;22475;51.390;7.180;2023-05-03T00:21:03;6.95;;;2.10;;
36449;SDS011;22475;51.390;7.180;2023-05-03T00:23:30;2.17;;;1.85;;
36449;SDS011;22475;51.390;7.180;2023-05-03T00:25:57;4.80;;;1.42;;
36449;SDS011;22475;51.390;7.180;2023-05-03T00:28:24;1.52;;;1.42;;
36449;SDS011;22475;51.390;7.180;2023-05-03T00:30:51;2.03;;;1.30;;
36449;SDS011;22475;51.390;7.180;2023-05-03T00:33:19;1.88;;;1.75;;
36449;SDS011;22475;51.390;7.180;2023-05-03T00:35:46;3.25;;;1.45;;
36449;SDS011;22475;51.390;7.180;2023-05-03T00:38:13;1.70;;;1.60;;
36449;SDS011;22475;51.390;7.180;2023-05-03T00:40:40;6.00;;;1.40;;
36449;SDS011;22475;51.390;7.180;2023-05-03T00:43:09;1.95;;;1.30;;
36449;SDS011;22475;51.390;7.180;2023-05-03T00:45:36;3.83;;;1.40;;
36449;SDS011;22475;51.390;7.180;2023-05-03T00:48:03;1.95;;;1.85;;
36449;SDS011;22475;51.390;7.180;2023-05-03T00:50:31;4.78;;;1.52;;
36449;SDS011;22475;51.390;7.180;2023-05-03T00:52:58;4.90;;;1.85;;
36449;SDS011;22475;51.390;7.180;2023-05-03T00:55:26;3.13;;;1.20;;
36449;SDS011;22475;51.390;7.180;2023-05-03T00:57:55;5.28;;;1.35;;
36449;SDS011;22475;51.390;7.180;2023-05-03T01:00:22;4.70;;;1.30;;
36449;SDS011;22475;51.390;7.180;2023-05-03T01:02:49;6.38;;;2.00;;
36449;SDS011;22475;51.390;7.180;2023-05-03T01:05:16;2.97;;;1.92;;
36449;SDS011;22475;51.390;7.180;2023-05-03T01:07:47;5.95;;;1.80;;
36449;SDS011;22475;51.390;7.180;2023-05-03T01:12:54;5.73;;;1.77;;
36449;SDS011;22475;51.390;7.180;2023-05-03T01:15:34;4.93;;;2.05;;
36449;SDS011;22475;51.390;7.180;2023-05-03T01:18:10;5.40;;;1.63;;
36449;SDS011;22475;51.390;7.180;2023-05-03T01:20:40;2.63;;;2.00;;
36449;SDS011;22475;51.390;7.180;2023-05-03T01:23:13;5.50;;;1.40;;
36449;SDS011;22475;51.390;7.180;2023-05-03T01:25:49;2.47;;;1.60;;
36449;SDS011;22475;51.390;7.180;2023-05-03T01:28:17;6.88;;;2.10;;
36449;SDS011;22475;51.390;7.180;2023-05-03T01:30:43;1.98;;;1.30;;
36449;SDS011;22475;51.390;7.180;2023-05-03T01:33:13;1.85;;;1.73;;
36449;SDS011;22475;51.390;7.180;2023-05-03T01:35:46;1.30;;;1.25;;
36449;SDS011;22475;51.390;7.180;2023-05-03T01:38:18;4.18;;;1.10;;
36449;SDS011;22475;51.390;7.180;2023-05-03T01:40:49;1.90;;;1.25;;
36449;SDS011;22475;51.390;7.180;2023-05-03T01:43:18;6.78;;;2.15;;
36449;SDS011;22475;51.390;7.180;2023-05-03T01:45:47;2.70;;;1.52;;
36449;SDS011;22475;51.390;7.180;2023-05-03T01:48:15;3.08;;;2.55;;
36449;SDS011;22475;51.390;7.180;2023-05-03T01:50:42;2.22;;;1.70;;
36449;SDS011;22475;51.390;7.180;2023-05-03T01:53:09;4.72;;;1.48;;
36449;SDS011;22475;51.390;7.180;2023-05-03T01:55:36;6.75;;;2.80;;
36449;SDS011;22475;51.390;7.180;2023-05-03T01:58:04;8.50;;;2.20;;
36449;SDS011;22475;51.390;7.180;2023-05-03T02:00:31;2.80;;;2.10;;
36449;SDS011;22475;51.390;7.180;2023-05-03T02:02:58;4.43;;;1.13;;
36449;SDS011;22475;51.390;7.180;2023-05-03T02:05:25;3.50;;;1.70;;
36449;SDS011;22475;51.390;7.180;2023-05-03T02:07:51;1.88;;;0.98;;
36449;SDS011;22475;51.390;7.180;2023-05-03T02:10:18;6.55;;;1.35;;
36449;SDS011;22475;51.390;7.180;2023-05-03T02:12:45;4.20;;;1.65;;
36449;SDS011;22475;51.390;7.180;2023-05-03T02:15:13;3.95;;;1.75;;
36449;SDS011;22475;51.390;7.180;2023-05-03T02:17:41;2.38;;;1.60;;
36449;SDS011;22475;51.390;7.180;2023-05-03T02:20:09;2.95;;;1.25;;
36449;SDS011;22475;51.390;7.180;2023-05-03T02:22:36;1.55;;;1.20;;
36449;SDS011;22475;51.390;7.180;2023-05-03T02:25:03;2.10;;;1.52;;
36449;SDS011;22475;51.390;7.180;2023-05-03T02:27:31;3.55;;;1.40;;
36449;SDS011;22475;51.390;7.180;2023-05-03T02:29:58;3.67;;;1.58;;
36449;SDS011;22475;51.390;7.180;2023-05-03T02:32:26;2.95;;;2.22;;
36449;SDS011;22475;51.390;7.180;2023-05-03T02:34:53;1.20;;;1.10;;
36449;SDS011;22475;51.390;7.180;2023-05-03T02:37:20;2.15;;;1.95;;
36449;SDS011;22475;51.390;7.180;2023-05-03T02:39:46;3.45;;;1.55;;
36449;SDS011;22475;51.390;7.180;2023-05-03T02:42:13;3.78;;;1.75;;
36449;SDS011;22475;51.390;7.180;2023-05-03T02:44:40;3.85;;;1.90;;
36449;SDS011;22475;51.390;7.180;2023-05-03T02:47:07;2.58;;;1.83;;
36449;SDS011;22475;51.390;7.180;2023-05-03T02:49:36;4.45;;;1.80;;
36449;SDS011;22475;51.390;7.180;2023-05-03T02:52:02;5.07;;;2.20;;
36449;SDS011;22475;51.390;7.180;2023-05-03T02:54:29;1.60;;;1.50;;
36449;SDS011;22475;51.390;7.180;2023-05-03T02:56:56;2.33;;;1.73;;
36449;SDS011;22475;51.390;7.180;2023-05-03T02:59:23;9.85;;;1.65;;
36449;SDS011;22475;51.390;7.180;2023-05-03T03:01:50;5.90;;;1.88;;
36449;SDS011;22475;51.390;7.180;2023-05-03T03:04:16;5.75;;;1.92;;
36449;SDS011;22475;51.390;7.180;2023-05-03T03:06:44;6.28;;;2.40;;
36449;SDS011;22475;51.390;7.180;2023-05-03T03:09:11;2.72;;;1.60;;
36449;SDS011;22475;51.390;7.180;2023-05-03T03:11:38;3.13;;;1.60;;
36449;SDS011;22475;51.390;7.180;2023-05-03T03:14:04;2.75;;;1.85;;
36449;SDS011;22475;51.390;7.180;2023-05-03T03:16:31;6.43;;;2.15;;
36449;SDS011;22475;51.390;7.180;2023-05-03T03:18:58;5.07;;;2.85;;
36449;SDS011;22475;51.390;7.180;2023-05-03T03:21:25;3.28;;;1.90;;
36449;SDS011;22475;51.390;7.180;2023-05-03T03:23:55;5.93;;;3.25;;
36449;SDS011;22475;51.390;7.180;2023-05-03T03:26:21;6.20;;;1.85;;
36449;SDS011;22475;51.390;7.180;2023-05-03T03:28:48;5.22;;;2.10;;
36449;SDS011;22475;51.390;7.180;2023-05-03T03:31:15;3.22;;;1.90;;
36449;SDS011;22475;51.390;7.180;2023-05-03T03:33:43;7.50;;;1.83;;
36449;SDS011;22475;51.390;7.180;2023-05-03T03:36:09;4.05;;;2.08;;
36449;SDS011;22475;51.390;7.180;2023-05-03T03:38:36;2.13;;;1.92;;
36449;SDS011;22475;51.390;7.180;2023-05-03T03:41:04;4.70;;;2.40;;
36449;SDS011;22475;51.390;7.180;2023-05-03T03:43:31;2.03;;;1.63;;
36449;SDS011;22475;51.390;7.180;2023-05-03T03:45:58;7.72;;;1.75;;
36449;SDS011;22475;51.390;7.180;2023-05-03T03:48:25;6.20;;;2.97;;
36449;SDS011;22475;51.390;7.180;2023-05-03T03:50:52;2.30;;;2.10;;
36449;SDS011;22475;51.390;7.180;2023-05-03T03:53:20;10.43;;;3.35;;
36449;SDS011;22475;51.390;7.180;2023-05-03T03:55:49;8.93;;;3.55;;
36449;SDS011;22475;51.390;7.180;2023-05-03T03:58:17;4.70;;;1.88;;
36449;SDS011;22475;51.390;7.180;2023-05-03T04:00:44;6.25;;;3.05;;
36449;SDS011;22475;51.390;7.180;2023-05-03T04:03:11;4.55;;;2.25;;
36449;SDS011;22475;51.390;7.180;2023-05-03T04:05:37;3.20;;;1.83;;
36449;SDS011;22475;51.390;7.180;2023-05-03T04:08:04;5.97;;;2.38;;
36449;SDS011;22475;51.390;7.180;2023-05-03T04:10:31;3.70;;;1.95;;
36449;SDS011;22475;51.390;7.180;2023-05-03T04:12:58;3.20;;;2.03;;
36449;SDS011;22475;51.390;7.180;2023-05-03T04:15:27;2.58;;;1.77;;
36449;SDS011;22475;51.390;7.180;2023-05-03T04:17:56;5.57;;;3.03;;
36449;SDS011;22475;51.390;7.180;2023-05-03T04:20:23;4.13;;;1.85;;
36449;SDS011;22475;51.390;7.180;2023-05-03T04:22:49;3.78;;;2.13;;
36449;SDS011;22475;51.390;7.180;2023-05-03T04:25:16;3.28;;;2.13;;
36449;SDS011;22475;51.390;7.180;2023-05-03T04:27:43;2.95;;;2.58;;
36449;SDS011;22475;51.390;7.180;2023-05-03T04:30:10;3.50;;;3.20;;
36449;SDS011;22475;51.390;7.180;2023-05-03T04:32:40;4.95;;;2.47;;
36449;SDS011;22475;51.390;7.180;2023-05-03T04:35:08;6.65;;;1.83;;
36449;SDS011;22475;51.390;7.180;2023-05-03T04:37:36;4.22;;;1.55;;
36449;SDS011;22475;51.390;7.180;2023-05-03T04:40:05;4.18;;;2.10;;
36449;SDS011;22475;51.390;7.180;2023-05-03T04:42:32;5.03;;;2.70;;
36449;SDS011;22475;51.390;7.180;2023-05-03T04:44:59;5.95;;;3.03;;
36449;SDS011;22475;51.390;7.180;2023-05-03T04:47:27;5.90;;;2.33;;
36449;SDS011;22475;51.390;7.180;2023-05-03T04:49:55;3.67;;;3.20;;
36449;SDS011;22475;51.390;7.180;2023-05-03T04:52:22;6.68;;;2.53;;
36449;SDS011;22475;51.390;7.180;2023-05-03T04:54:48;4.50;;;2.97;;
36449;SDS011;22475;51.390;7.180;2023-05-03T04:57:15;3.30;;;2.80;;
36449;SDS011;22475;51.390;7.180;2023-05-03T04:59:42;2.40;;;2.13;;
36449;SDS011;22475;51.390;7.180;2023-05-03T05:02:09;4.15;;;3.30;;
36449;SDS011;22475;51.390;7.180;2023-05-03T05:04:36;4.38;;;2.25;;
36449;SDS011;22475;51.390;7.180;2023-05-03T05:07:04;3.22;;;2.50;;
36449;SDS011;22475;51.390;7.180;2023-05-03T05:09:30;4.70;;;2.72;;
36449;SDS011;22475;51.390;7.180;2023-05-03T05:11:57;4.25;;;3.53;;
36449;SDS011;22475;51.390;7.180;2023-05-03T05:14:25;4.50;;;3.55;;
36449;SDS011;22475;51.390;7.180;2023-05-03T05:16:52;3.10;;;1.65;;
36449;SDS011;22475;51.390;7.180;2023-05-03T05:19:18;4.68;;;3.33;;
36449;SDS011;22475;51.390;7.180;2023-05-03T05:21:45;2.38;;;2.17;;
36449;SDS011;22475;51.390;7.180;2023-05-03T05:24:13;5.65;;;3.63;;
36449;SDS011;22475;51.390;7.180;2023-05-03T05:26:40;9.65;;;3.47;;
36449;SDS011;22475;51.390;7.180;2023-05-03T05:29:08;5.25;;;2.80;;
36449;SDS011;22475;51.390;7.180;2023-05-03T05:31:35;4.53;;;3.13;;
36449;SDS011;22475;51.390;7.180;2023-05-03T05:34:02;3.97;;;3.15;;
36449;SDS011;22475;51.390;7.180;2023-05-03T05:36:29;3.72;;;3.30;;
36449;SDS011;22475;51.390;7.180;2023-05-03T05:38:56;3.13;;;2.45;;
36449;SDS011;22475;51.390;7.180;2023-05-03T05:41:24;3.13;;;2.78;;
36449;SDS011;22475;51.390;7.180;2023-05-03T05:43:51;6.10;;;4.05;;
36449;SDS011;22475;51.390;7.180;2023-05-03T05:46:18;8.63;;;3.30;;
36449;SDS011;22475;51.390;7.180;2023-05-03T05:48:45;4.38;;;3.20;;
36449;SDS011;22475;51.390;7.180;2023-05-03T05:51:12;5.57;;;4.50;;
36449;SDS011;22475;51.390;7.180;2023-05-03T05:53:39;3.53;;;3.17;;
36449;SDS011;22475;51.390;7.180;2023-05-03T05:56:06;5.22;;;4.32;;
36449;SDS011;22475;51.390;7.180;2023-05-03T05:58:34;2.80;;;1.88;;
36449;SDS011;22475;51.390;7.180;2023-05-03T06:01:02;4.57;;;2.50;;
36449;SDS011;22475;51.390;7.180;2023-05-03T06:03:29;11.25;;;5.43;;
36449;SDS011;22475;51.390;7.180;2023-05-03T06:05:56;6.47;;;4.00;;
36449;SDS011;22475;51.390;7.180;2023-05-03T06:08:23;12.15;;;4.80;;
36449;SDS011;22475;51.390;7.180;2023-05-03T06:10:50;7.57;;;2.38;;
36449;SDS011;22475;51.390;7.180;2023-05-03T06:13:17;3.40;;;2.30;;
36449;SDS011;22475;51.390;7.180;2023-05-03T06:15:46;8.45;;;4.20;;
36449;SDS011;22475;51.390;7.180;2023-05-03T06:18:12;9.02;;;3.65;;
36449;SDS011;22475;51.390;7.180;2023-05-03T06:20:40;7.75;;;4.30;;
36449;SDS011;22475;51.390;7.180;2023-05-03T06:23:07;8.40;;;4.75;;
36449;SDS011;22475;51.390;7.180;2023-05-03T06:25:34;3.40;;;3.10;;
36449;SDS011;22475;51.390;7.180;2023-05-03T06:28:01;3.83;;;3.45;;
36449;SDS011;22475;51.390;7.180;2023-05-03T06:30:28;6.05;;;3.83;;
36449;SDS011;22475;51.390;7.180;2023-05-03T06:32:56;7.45;;;4.10;;
36449;SDS011;22475;51.390;7.180;2023-05-03T06:35:23;10.13;;;4.35;;
36449;SDS011;22475;51.390;7.180;2023-05-03T06:37:50;9.25;;;3.72;;
36449;SDS011;22475;51.390;7.180;2023-05-03T06:40:17;3.35;;;3.05;;
36449;SDS011;22475;51.390;7.180;2023-05-03T06:42:44;7.53;;;4.75;;
36449;SDS011;22475;51.390;7.180;2023-05-03T06:45:11;3.78;;;2.30;;
36449;SDS011;22475;51.390;7.180;2023-05-03T06:47:38;5.18;;;3.25;;
36449;SDS011;22475;51.390;7.180;2023-05-03T06:50:08;10.45;;;4.18;;
36449;SDS011;22475;51.390;7.180;2023-05-03T06:52:35;11.90;;;4.40;;
36449;SDS011;22475;51.390;7.180;2023-05-03T06:55:02;5.65;;;3.83;;
36449;SDS011;22475;51.390;7.180;2023-05-03T06:57:30;16.25;;;4.30;;
36449;SDS011;22475;51.390;7.180;2023-05-03T06:59:56;5.05;;;4.15;;
36449;SDS011;22475;51.390;7.180;2023-05-03T07:02:23;4.20;;;3.08;;
36449;SDS011;22475;51.390;7.180;2023-05-03T07:04:50;6.20;;;4.25;;
36449;SDS011;22475;51.390;7.180;2023-05-03T07:07:18;6.05;;;4.15;;
36449;SDS011;22475;51.390;7.180;2023-05-03T07:09:45;10.45;;;5.10;;
36449;SDS011;22475;51.390;7.180;2023-05-03T07:12:12;12.98;;;5.82;;
36449;SDS011;22475;51.390;7.180;2023-05-03T07:14:39;15.55;;;6.47;;
36449;SDS011;22475;51.390;7.180;2023-05-03T07:17:05;3.83;;;3.47;;
36449;SDS011;22475;51.390;7.180;2023-05-03T07:19:32;8.40;;;3.35;;
36449;SDS011;22475;51.390;7.180;2023-05-03T07:21:59;5.25;;;3.97;;
36449;SDS011;22475;51.390;7.180;2023-05-03T07:24:28;4.45;;;2.40;;
36449;SDS011;22475;51.390;7.180;2023-05-03T07:26:55;7.97;;;4.68;;
36449;SDS011;22475;51.390;7.180;2023-05-03T07:29:23;3.50;;;2.88;;
36449;SDS011;22475;51.390;7.180;2023-05-03T07:31:50;7.43;;;4.07;;
36449;SDS011;22475;51.390;7.180;2023-05-03T07:34:17;2.65;;;1.90;;
36449;SDS011;22475;51.390;7.180;2023-05-03T07:36:43;9.73;;;3.88;;
36449;SDS011;22475;51.390;7.180;2023-05-03T07:39:10;4.32;;;3.15;;
36449;SDS011;22475;51.390;7.180;2023-05-03T07:41:38;9.35;;;3.40;;
36449;SDS011;22475;51.390;7.180;2023-05-03T07:44:05;5.80;;;3.30;;
36449;SDS011;22475;51.390;7.180;2023-05-03T07:46:32;2.80;;;2.47;;
36449;SDS011;22475;51.390;7.180;2023-05-03T07:48:59;6.75;;;2.75;;
36449;SDS011;22475;51.390;7.180;2023-05-03T07:51:26;3.80;;;2.72;;
36449;SDS011;22475;51.390;7.180;2023-05-03T07:53:53;2.92;;;1.90;;
36449;SDS011;22475;51.390;7.180;2023-05-03T07:56:20;3.80;;;3.47;;
36449;SDS011;22475;51.390;7.180;2023-05-03T07:58:49;5.15;;;2.97;;
36449;SDS011;22475;51.390;7.180;2023-05-03T08:01:16;3.88;;;3.20;;
36449;SDS011;22475;51.390;7.180;2023-05-03T08:03:42;11.88;;;3.20;;
36449;SDS011;22475;51.390;7.180;2023-05-03T08:06:10;4.65;;;3.25;;
36449;SDS011;22475;51.390;7.180;2023-05-03T08:08:36;4.55;;;1.48;;
36449;SDS011;22475;51.390;7.180;2023-05-03T08:11:03;7.88;;;3.55;;
36449;SDS011;22475;51.390;7.180;2023-05-03T08:13:30;4.80;;;1.95;;
36449;SDS011;22475;51.390;7.180;2023-05-03T08:15:58;3.58;;;2.13;;
36449;SDS011;22475;51.390;7.180;2023-05-03T08:18:25;4.72;;;2.58;;
36449;SDS011;22475;51.390;7.180;2023-05-03T08:20:52;6.65;;;2.60;;
36449;SDS011;22475;51.390;7.180;2023-05-03T08:23:19;2.75;;;2.20;;
36449;SDS011;22475;51.390;7.180;2023-05-03T08:25:46;3.55;;;1.73;;
36449;SDS011;22475;51.390;7.180;2023-05-03T08:28:13;8.65;;;2.88;;
36449;SDS011;22475;51.390;7.180;2023-05-03T08:30:40;3.92;;;2.83;;
36449;SDS011;22475;51.390;7.180;2023-05-03T08:33:08;1.70;;;1.25;;
36449;SDS011;22475;51.390;7.180;2023-05-03T08:35:35;3.40;;;2.95;;
36449;SDS011;22475;51.390;7.180;2023-05-03T08:38:02;8.32;;;2.45;;
36449;SDS011;22475;51.390;7.180;2023-05-03T08:40:29;3.70;;;2.03;;
36449;SDS011;22475;51.390;7.180;2023-05-03T08:42:59;2.45;;;1.50;;
36449;SDS011;22475;51.390;7.180;2023-05-03T08:45:33;4.22;;;1.52;;
36449;SDS011;22475;51.390;7.180;2023-05-03T08:48:00;1.90;;;1.27;;
36449;SDS011;22475;51.390;7.180;2023-05-03T08:50:30;3.17;;;2.58;;
36449;SDS011;22475;51.390;7.180;2023-05-03T08:53:01;3.55;;;1.65;;
36449;SDS011;22475;51.390;7.180;2023-05-03T08:55:28;2.85;;;2.30;;
36449;SDS011;22475;51.390;7.180;2023-05-03T08:57:55;12.75;;;2.72;;
36449;SDS011;22475;51.390;7.180;2023-05-03T09:00:26;4.47;;;2.03;;
36449;SDS011;22475;51.390;7.180;2023-05-03T09:02:54;1.88;;;1.35;;
36449;SDS011;22475;51.390;7.180;2023-05-03T09:05:32;1.25;;;1.15;;
36449;SDS011;22475;51.390;7.180;2023-05-03T09:08:03;6.70;;;1.63;;
36449;SDS011;22475;51.390;7.180;2023-05-03T09:10:31;1.15;;;1.02;;
36449;SDS011;22475;51.390;7.180;2023-05-03T09:13:01;1.85;;;1.75;;
36449;SDS011;22475;51.390;7.180;2023-05-03T09:15:28;3.60;;;1.83;;
36449;SDS011;22475;51.390;7.180;2023-05-03T09:18:12;6.88;;;2.15;;
36449;SDS011;22475;51.390;7.180;2023-05-03T09:20:42;1.50;;;1.00;;
36449;SDS011;22475;51.390;7.180;2023-05-03T09:23:15;3.97;;;1.50;;
36449;SDS011;22475;51.390;7.180;2023-05-03T09:25:43;7.80;;;2.45;;
36449;SDS011;22475;51.390;7.180;2023-05-03T09:28:10;3.97;;;1.65;;
36449;SDS011;22475;51.390;7.180;2023-05-03T09:30:37;8.70;;;1.92;;
36449;SDS011;22475;51.390;7.180;2023-05-03T09:33:04;2.03;;;1.38;;
36449;SDS011;22475;51.390;7.180;2023-05-03T09:35:31;3.20;;;1.65;;
36449;SDS011;22475;51.390;7.180;2023-05-03T09:38:00;2.45;;;1.10;;
36449;SDS011;22475;51.390;7.180;2023-05-03T09:40:27;1.73;;;1.30;;
36449;SDS011;22475;51.390;7.180;2023-05-03T09:43:03;3.08;;;1.48;;
36449;SDS011;22475;51.390;7.180;2023-05-03T09:45:32;1.50;;;1.40;;
36449;SDS011;22475;51.390;7.180;2023-05-03T09:47:59;5.20;;;1.80;;
36449;SDS011;22475;51.390;7.180;2023-05-03T09:50:27;1.88;;;1.10;;
36449;SDS011;22475;51.390;7.180;2023-05-03T09:52:56;1.92;;;1.60;;
36449;SDS011;22475;51.390;7.180;2023-05-03T09:55:26;1.63;;;1.40;;
36449;SDS011;22475;51.390;7.180;2023-05-03T09:57:54;3.58;;;2.05;;
36449;SDS011;22475;51.390;7.180;2023-05-03T10:00:23;2.03;;;1.25;;
36449;SDS011;22475;51.390;7.180;2023-05-03T10:02:50;5.28;;;1.67;;
36449;SDS011;22475;51.390;7.180;2023-05-03T10:05:22;2.20;;;1.48;;
36449;SDS011;22475;51.390;7.180;2023-05-03T10:07:51;2.10;;;1.70;;
36449;SDS011;22475;51.390;7.180;2023-05-03T10:10:22;3.70;;;1.88;;
36449;SDS011;22475;51.390;7.180;2023-05-03T10:12:50;1.90;;;1.58;;
36449;SDS011;22475;51.390;7.180;2023-05-03T10:15:17;8.45;;;1.10;;
36449;SDS011;22475;51.390;7.180;2023-05-03T10:17:48;4.65;;;0.95;;
36449;SDS011;22475;51.390;7.180;2023-05-03T10:20:20;3.63;;;1.63;;
36449;SDS011;22475;51.390;7.180;2023-05-03T10:23:05;9.90;;;1.58;;
36449;SDS011;22475;51.390;7.180;2023-05-03T10:25:34;4.05;;;1.80;;
36449;SDS011;22475;51.390;7.180;2023-05-03T10:28:03;2.97;;;1.58;;
36449;SDS011;22475;51.390;7.180;2023-05-03T10:30:31;3.92;;;1.65;;
36449;SDS011;22475;51.390;7.180;2023-05-03T10:32:59;3.10;;;1.58;;
36449;SDS011;22475;51.390;7.180;2023-05-03T10:35:55;2.50;;;1.77;;
36449;SDS011;22475;51.390;7.180;2023-05-03T10:38:23;5.00;;;1.35;;
36449;SDS011;22475;51.390;7.180;2023-05-03T10:40:52;3.75;;;1.42;;
36449;SDS011;22475;51.390;7.180;2023-05-03T10:51:50;3.58;;;1.05;;
36449;SDS011;22475;51.390;7.180;2023-05-03T10:54:17;1.63;;;1.33;;
36449;SDS011;22475;51.390;7.180;2023-05-03T10:56:49;4.05;;;1.00;;
36449;SDS011;22475;51.390;7.180;2023-05-03T10:59:17;2.38;;;1.67;;
36449;SDS011;22475;51.390;7.180;2023-05-03T11:01:44;3.10;;;1.33;;
36449;SDS011;22475;51.390;7.180;2023-05-03T11:06:47;3.35;;;1.58;;
36449;SDS011;22475;51.390;7.180;2023-05-03T11:09:15;5.82;;;2.55;;
36449;SDS011;22475;51.390;7.180;2023-05-03T11:11:42;1.65;;;1.02;;
36449;SDS011;22475;51.390;7.180;2023-05-03T11:14:11;1.58;;;1.48;;
36449;SDS011;22475;51.390;7.180;2023-05-03T11:16:38;4.35;;;1.63;;
36449;SDS011;22475;51.390;7.180;2023-05-03T11:19:11;7.35;;;1.55;;
36449;SDS011;22475;51.390;7.180;2023-05-03T11:21:39;1.88;;;1.17;;
36449;SDS011;22475;51.390;7.180;2023-05-03T11:24:06;1.08;;;0.80;;
36449;SDS011;22475;51.390;7.180;2023-05-03T11:26:36;3.03;;;1.45;;
36449;SDS011;22475;51.390;7.180;2023-05-03T11:29:03;2.00;;;1.40;;
36449;SDS011;22475;51.390;7.180;2023-05-03T11:31:31;4.70;;;1.10;;
36449;SDS011;22475;51.390;7.180;2023-05-03T11:33:59;2.85;;;1.25;;
36449;SDS011;22475;51.390;7.180;2023-05-03T11:36:26;1.10;;;1.05;;
36449;SDS011;22475;51.390;7.180;2023-05-03T11:38:54;2.50;;;2.10;;
36449;SDS011;22475;51.390;7.180;2023-05-03T11:41:21;2.00;;;0.90;;
36449;SDS011;22475;51.390;7.180;2023-05-03T11:43:48;3.58;;;1.15;;
36449;SDS011;22475;51.390;7.180;2023-05-03T11:46:15;8.27;;;1.70;;
36449;SDS011;22475;51.390;7.180;2023-05-03T11:48:47;1.67;;;0.68;;
36449;SDS011;22475;51.390;7.180;2023-05-03T11:51:14;6.38;;;1.13;;
36449;SDS011;22475;51.390;7.180;2023-05-03T11:53:46;1.77;;;1.60;;
36449;SDS011;22475;51.390;7.180;2023-05-03T11:56:14;2.78;;;1.67;;
36449;SDS011;22475;51.390;7.180;2023-05-03T11:58:49;4.95;;;1.67;;
36449;SDS011;22475;51.390;7.180;2023-05-03T12:01:17;3.53;;;0.80;;
36449;SDS011;22475;51.390;7.180;2023-05-03T12:03:47;2.22;;;1.40;;
36449;SDS011;22475;51.390;7.180;2023-05-03T12:06:17;2.40;;;1.42;;
36449;SDS011;22475;51.390;7.180;2023-05-03T12:08:44;2.28;;;0.52;;
36449;SDS011;22475;51.390;7.180;2023-05-03T12:11:11;1.30;;;0.80;;
36449;SDS011;22475;51.390;7.180;2023-05-03T12:13:38;4.18;;;1.50;;
36449;SDS011;22475;51.390;7.180;2023-05-03T12:16:06;0.95;;;0.85;;
36449;SDS011;22475;51.390;7.180;2023-05-03T12:18:44;3.72;;;0.47;;
36449;SDS011;22475;51.390;7.180;2023-05-03T12:21:20;6.63;;;1.65;;
36449;SDS011;22475;51.390;7.180;2023-05-03T12:23:48;5.28;;;1.65;;
36449;SDS011;22475;51.390;7.180;2023-05-03T12:26:16;0.77;;;0.77;;
36449;SDS011;22475;51.390;7.180;2023-05-03T12:28:44;4.57;;;1.92;;
36449;SDS011;22475;51.390;7.180;2023-05-03T12:31:12;0.82;;;0.45;;
36449;SDS011;22475;51.390;7.180;2023-05-03T12:33:39;2.60;;;0.98;;
36449;SDS011;22475;51.390;7.180;2023-05-03T12:36:08;1.42;;;0.70;;
36449;SDS011;22475;51.390;7.180;2023-05-03T12:38:35;4.45;;;1.55;;
36449;SDS011;22475;51.390;7.180;2023-05-03T12:41:02;6.88;;;1.50;;
36449;SDS011;22475;51.390;7.180;2023-05-03T12:43:29;3.30;;;1.23;;
36449;SDS011;22475;51.390;7.180;2023-05-03T12:45:55;5.05;;;0.82;;
36449;SDS011;22475;51.390;7.180;2023-05-03T12:50:53;1.35;;;1.00;;
36449;SDS011;22475;51.390;7.180;2023-05-03T12:53:21;1.45;;;0.63;;
36449;SDS011;22475;51.390;7.180;2023-05-03T12:55:48;1.35;;;1.23;;
36449;SDS011;22475;51.390;7.180;2023-05-03T12:58:15;1.88;;;1.77;;
36449;SDS011;22475;51.390;7.180;2023-05-03T13:00:43;1.73;;;1.35;;
36449;SDS011;22475;51.390;7.180;2023-05-03T13:03:11;0.77;;;0.77;;
36449;SDS011;22475;51.390;7.180;2023-05-03T13:05:38;1.08;;;0.80;;
36449;SDS011;22475;51.390;7.180;2023-05-03T13:08:05;0.98;;;0.98;;
36449;SDS011;22475;51.390;7.180;2023-05-03T13:10:34;2.20;;;1.20;;
36449;SDS011;22475;51.390;7.180;2023-05-03T13:13:01;0.77;;;0.60;;
36449;SDS011;22475;51.390;7.180;2023-05-03T13:15:28;0.77;;;0.70;;
36449;SDS011;22475;51.390;7.180;2023-05-03T13:17:55;0.80;;;0.80;;
36449;SDS011;22475;51.390;7.180;2023-05-03T13:20:25;1.38;;;1.27;;
36449;SDS011;22475;51.390;7.180;2023-05-03T13:22:53;0.70;;;0.60;;
36449;SDS011;22475;51.390;7.180;2023-05-03T13:25:19;1.13;;;0.98;;
36449;SDS011;22475;51.390;7.180;2023-05-03T13:27:47;1.15;;;1.05;;
36449;SDS011;22475;51.390;7.180;2023-05-03T13:30:17;6.32;;;0.80;;
36449;SDS011;22475;51.390;7.180;2023-05-03T13:32:45;1.05;;;0.88;;
36449;SDS011;22475;51.390;7.180;2023-05-03T13:35:12;1.20;;;0.93;;
36449;SDS011;22475;51.390;7.180;2023-05-03T13:37:38;1.88;;;1.23;;
36449;SDS011;22475;51.390;7.180;2023-05-03T13:40:05;0.52;;;0.52;;
36449;SDS011;22475;51.390;7.180;2023-05-03T13:42:33;1.95;;;0.73;;
36449;SDS011;22475;51.390;7.180;2023-05-03T13:45:02;3.65;;;1.00;;
36449;SDS011;22475;51.390;7.180;2023-05-03T13:47:29;1.55;;;0.98;;
36449;SDS011;22475;51.390;7.180;2023-05-03T13:49:55;0.70;;;0.60;;
36449;SDS011;22475;51.390;7.180;2023-05-03T13:52:23;4.25;;;1.83;;
36449;SDS011;22475;51.390;7.180;2023-05-03T13:54:49;2.53;;;0.88;;
36449;SDS011;22475;51.390;7.180;2023-05-03T13:57:18;1.70;;;0.55;;
36449;SDS011;22475;51.390;7.180;2023-05-03T13:59:45;0.65;;;0.65;;
36449;SDS011;22475;51.390;7.180;2023-05-03T14:02:13;2.05;;;1.50;;
36449;SDS011;22475;51.390;7.180;2023-05-03T14:04:40;2.15;;;1.35;;
36449;SDS011;22475;51.390;7.180;2023-05-03T14:07:06;2.95;;;0.75;;
36449;SDS011;22475;51.390;7.180;2023-05-03T14:09:33;2.78;;;0.65;;
36449;SDS011;22475;51.390;7.180;2023-05-03T14:12:03;1.77;;;0.70;;
36449;SDS011;22475;51.390;7.180;2023-05-03T14:14:31;1.95;;;0.60;;
36449;SDS011;22475;51.390;7.180;2023-05-03T14:16:58;0.70;;;0.50;;
36449;SDS011;22475;51.390;7.180;2023-05-03T14:19:26;3.15;;;0.95;;
36449;SDS011;22475;51.390;7.180;2023-05-03T14:21:54;1.73;;;0.52;;
36449;SDS011;22475;51.390;7.180;2023-05-03T14:24:23;3.40;;;0.50;;
36449;SDS011;22475;51.390;7.180;2023-05-03T14:26:50;3.63;;;0.32;;
36449;SDS011;22475;51.390;7.180;2023-05-03T14:29:17;0.52;;;0.52;;
36449;SDS011;22475;51.390;7.180;2023-05-03T14:31:44;0.80;;;0.65;;
36449;SDS011;22475;51.390;7.180;2023-05-03T14:34:11;2.40;;;0.60;;
36449;SDS011;22475;51.390;7.180;2023-05-03T14:36:39;1.30;;;0.52;;
36449;SDS011;22475;51.390;7.180;2023-05-03T14:39:07;1.92;;;0.90;;
36449;SDS011;22475;51.390;7.180;2023-05-03T14:41:34;5.28;;;1.10;;
36449;SDS011;22475;51.390;7.180;2023-05-03T14:44:01;0.80;;;0.50;;
36449;SDS011;22475;51.390;7.180;2023-05-03T14:46:28;0.40;;;0.40;;
36449;SDS011;22475;51.390;7.180;2023-05-03T14:48:55;2.92;;;0.60;;
36449;SDS011;22475;51.390;7.180;2023-05-03T14:51:22;0.90;;;0.55;;
36449;SDS011;22475;51.390;7.180;2023-05-03T14:53:50;0.50;;;0.45;;
36449;SDS011;22475;51.390;7.180;2023-05-03T14:56:17;0.77;;;0.50;;
36449;SDS011;22475;51.390;7.180;2023-05-03T14:58:43;0.63;;;0.50;;
36449;SDS011;22475;51.390;7.180;2023-05-03T15:01:15;0.43;;;0.40;;
36449;SDS011;22475;51.390;7.180;2023-05-03T15:03:43;1.15;;;0.50;;
36449;SDS011;22475;51.390;7.180;2023-05-03T15:06:09;0.75;;;0.55;;
36449;SDS011;22475;51.390;7.180;2023-05-03T15:08:36;1.58;;;0.70;;